sensor_id;sensor_type;location;lat;lon;timestamp;temperature;humidity
29817;DHT22;16805;52.956;5.906;2023-10-19T00:00:34;8.30;99.90
29817;DHT22;16805;52.956;5.906;2023-10-19T00:03:01;8.30;99.90
29817;DHT22;16805;52.956;5.906;2023-10-19T00:05:29;8.30;99.90
29817;DHT22;16805;52.956;5.906;2023-10-19T00:07:56;8.40;99.90
29817;DHT22;16805;52.956;5.906;2023-10-19T00:10:23;8.30;99.90
29817;DHT22;16805;52.956;5.906;2023-10-19T00:12:51;8.30;99.90
29817;DHT22;16805;52.956;5.906;2023-10-19T00:15:26;8.30;99.90
29817;DHT22;16805;52.956;5.906;2023-10-19T00:17:56;8.30;99.90
29817;DHT22;16805;52.956;5.906;2023-10-19T00:20:21;8.30;99.90
29817;DHT22;16805;52.956;5.906;2023-10-19T00:23:16;8.30;99.90
29817;DHT22;16805;52.956;5.906;2023-10-19T00:25:55;8.30;99.90
29817;DHT22;16805;52.956;5.906;2023-10-19T00:28:21;8.30;99.90
29817;DHT22;16805;52.956;5.906;2023-10-19T00:30:48;8.30;99.90
29817;DHT22;16805;52.956;5.906;2023-10-19T00:33:15;8.30;99.90
29817;DHT22;16805;52.956;5.906;2023-10-19T00:35:42;8.30;99.90
29817;DHT22;16805;52.956;5.906;2023-10-19T00:38:12;8.30;99.90
29817;DHT22;16805;52.956;5.906;2023-10-19T00:41:05;8.30;99.90
29817;DHT22;16805;52.956;5.906;2023-10-19T00:43:33;8.30;99.90
29817;DHT22;16805;52.956;5.906;2023-10-19T00:46:08;8.30;99.90
29817;DHT22;16805;52.956;5.906;2023-10-19T00:48:56;8.30;99.90
29817;DHT22;16805;52.956;5.906;2023-10-19T00:51:51;8.30;99.90
29817;DHT22;16805;52.956;5.906;2023-10-19T00:54:38;8.30;99.90
29817;DHT22;16805;52.956;5.906;2023-10-19T00:57:17;8.30;99.90
29817;DHT22;16805;52.956;5.906;2023-10-19T00:59:47;8.30;99.90
29817;DHT22;16805;52.956;5.906;2023-10-19T01:02:20;8.30;99.90
29817;DHT22;16805;52.956;5.906;2023-10-19T01:04:50;8.30;99.90
29817;DHT22;16805;52.956;5.906;2023-10-19T01:07:22;8.30;99.90
29817;DHT22;16805;52.956;5.906;2023-10-19T01:09:54;8.30;99.90
29817;DHT22;16805;52.956;5.906;2023-10-19T01:12:22;8.30;99.90
29817;DHT22;16805;52.956;5.906;2023-10-19T01:15:16;8.30;99.90
29817;DHT22;16805;52.956;5.906;2023-10-19T01:17:52;8.30;99.90
29817;DHT22;16805;52.956;5.906;2023-10-19T01:20:20;8.30;99.90
29817;DHT22;16805;52.956;5.906;2023-10-19T01:22:52;8.30;99.90
29817;DHT22;16805;52.956;5.906;2023-10-19T01:25:20;8.30;99.90
29817;DHT22;16805;52.956;5.906;2023-10-19T01:27:51;8.30;99.90
29817;DHT22;16805;52.956;5.906;2023-10-19T01:30:23;8.30;99.90
29817;DHT22;16805;52.956;5.906;2023-10-19T01:32:48;8.30;99.90
29817;DHT22;16805;52.956;5.906;2023-10-19T01:35:15;8.30;99.90
29817;DHT22;16805;52.956;5.906;2023-10-19T01:37:40;8.40;99.90
29817;DHT22;16805;52.956;5.906;2023-10-19T01:40:07;8.40;99.90
29817;DHT22;16805;52.956;5.906;2023-10-19T01:42:33;8.40;99.90
29817;DHT22;16805;52.956;5.906;2023-10-19T01:44:59;8.40;99.90
29817;DHT22;16805;52.956;5.906;2023-10-19T01:47:25;8.40;99.90
29817;DHT22;16805;52.956;5.906;2023-10-19T01:49:51;8.40;99.90
29817;DHT22;16805;52.956;5.906;2023-10-19T01:52:18;8.40;99.90
29817;DHT22;16805;52.956;5.906;2023-10-19T01:54:43;8.40;99.90
29817;DHT22;16805;52.956;5.906;2023-10-19T01:57:09;8.40;99.90
29817;DHT22;16805;52.956;5.906;2023-10-19T01:59:35;8.40;99.90
29817;DHT22;16805;52.956;5.906;2023-10-19T02:02:00;8.40;99.90
29817;DHT22;16805;52.956;5.906;2023-10-19T02:04:27;8.40;99.90
29817;DHT22;16805;52.956;5.906;2023-10-19T02:06:53;8.40;99.90
29817;DHT22;16805;52.956;5.906;2023-10-19T02:09:19;8.50;99.90
29817;DHT22;16805;52.956;5.906;2023-10-19T02:12:00;8.40;99.90
29817;DHT22;16805;52.956;5.906;2023-10-19T02:14:32;8.50;99.90
29817;DHT22;16805;52.956;5.906;2023-10-19T02:16:59;8.50;99.90
29817;DHT22;16805;52.956;5.906;2023-10-19T02:19:27;8.50;99.90
29817;DHT22;16805;52.956;5.906;2023-10-19T02:22:00;8.50;99.90
29817;DHT22;16805;52.956;5.906;2023-10-19T02:24:29;8.50;99.90
29817;DHT22;16805;52.956;5.906;2023-10-19T02:26:56;8.50;99.90
29817;DHT22;16805;52.956;5.906;2023-10-19T02:29:22;8.50;99.90
29817;DHT22;16805;52.956;5.906;2023-10-19T02:31:48;8.50;99.90
29817;DHT22;16805;52.956;5.906;2023-10-19T02:34:15;8.50;99.90
29817;DHT22;16805;52.956;5.906;2023-10-19T02:36:42;8.50;99.90
29817;DHT22;16805;52.956;5.906;2023-10-19T02:39:09;8.50;99.90
29817;DHT22;16805;52.956;5.906;2023-10-19T02:41:37;8.50;99.90
29817;DHT22;16805;52.956;5.906;2023-10-19T02:44:04;8.50;99.90
29817;DHT22;16805;52.956;5.906;2023-10-19T02:46:45;8.50;99.90
29817;DHT22;16805;52.956;5.906;2023-10-19T02:49:12;8.50;99.90
29817;DHT22;16805;52.956;5.906;2023-10-19T02:51:45;8.60;99.90
29817;DHT22;16805;52.956;5.906;2023-10-19T02:54:17;8.60;99.90
29817;DHT22;16805;52.956;5.906;2023-10-19T02:56:50;8.60;99.90
29817;DHT22;16805;52.956;5.906;2023-10-19T02:59:17;8.60;99.90
29817;DHT22;16805;52.956;5.906;2023-10-19T03:01:47;8.60;99.90
29817;DHT22;16805;52.956;5.906;2023-10-19T03:04:13;8.60;99.90
29817;DHT22;16805;52.956;5.906;2023-10-19T03:06:40;8.60;99.90
29817;DHT22;16805;52.956;5.906;2023-10-19T03:09:07;8.70;99.90
29817;DHT22;16805;52.956;5.906;2023-10-19T03:11:41;8.70;99.90
29817;DHT22;16805;52.956;5.906;2023-10-19T03:14:07;8.70;99.90
29817;DHT22;16805;52.956;5.906;2023-10-19T03:16:35;8.70;99.90
29817;DHT22;16805;52.956;5.906;2023-10-19T03:19:01;8.70;99.90
29817;DHT22;16805;52.956;5.906;2023-10-19T03:21:26;8.70;99.90
29817;DHT22;16805;52.956;5.906;2023-10-19T03:23:54;8.70;99.90
29817;DHT22;16805;52.956;5.906;2023-10-19T03:26:22;8.70;99.90
29817;DHT22;16805;52.956;5.906;2023-10-19T03:29:02;8.70;99.90
29817;DHT22;16805;52.956;5.906;2023-10-19T03:31:39;8.70;99.90
29817;DHT22;16805;52.956;5.906;2023-10-19T03:34:13;8.80;99.90
29817;DHT22;16805;52.956;5.906;2023-10-19T03:36:40;8.80;99.90
29817;DHT22;16805;52.956;5.906;2023-10-19T03:39:06;8.80;99.90
29817;DHT22;16805;52.956;5.906;2023-10-19T03:41:39;8.80;99.90
29817;DHT22;16805;52.956;5.906;2023-10-19T03:44:08;8.80;99.90
29817;DHT22;16805;52.956;5.906;2023-10-19T03:46:39;8.80;99.90
29817;DHT22;16805;52.956;5.906;2023-10-19T03:49:21;8.80;99.90
29817;DHT22;16805;52.956;5.906;2023-10-19T03:51:47;8.80;99.90
29817;DHT22;16805;52.956;5.906;2023-10-19T03:54:27;8.80;99.90
29817;DHT22;16805;52.956;5.906;2023-10-19T03:56:54;8.80;99.90
29817;DHT22;16805;52.956;5.906;2023-10-19T03:59:21;8.80;99.90
29817;DHT22;16805;52.956;5.906;2023-10-19T04:01:47;8.80;99.90
29817;DHT22;16805;52.956;5.906;2023-10-19T04:04:13;8.90;99.90
29817;DHT22;16805;52.956;5.906;2023-10-19T04:06:39;8.80;99.90
29817;DHT22;16805;52.956;5.906;2023-10-19T04:09:05;8.90;99.90
29817;DHT22;16805;52.956;5.906;2023-10-19T04:11:32;8.90;99.90
29817;DHT22;16805;52.956;5.906;2023-10-19T04:14:01;8.90;99.90
29817;DHT22;16805;52.956;5.906;2023-10-19T04:16:29;8.90;99.90
29817;DHT22;16805;52.956;5.906;2023-10-19T04:18:56;8.90;99.90
29817;DHT22;16805;52.956;5.906;2023-10-19T04:21:23;9.00;99.90
29817;DHT22;16805;52.956;5.906;2023-10-19T04:23:49;9.00;99.90
29817;DHT22;16805;52.956;5.906;2023-10-19T04:26:15;9.00;99.90
29817;DHT22;16805;52.956;5.906;2023-10-19T04:28:43;9.00;99.90
29817;DHT22;16805;52.956;5.906;2023-10-19T04:31:16;9.00;99.90
29817;DHT22;16805;52.956;5.906;2023-10-19T04:33:42;9.00;99.90
29817;DHT22;16805;52.956;5.906;2023-10-19T04:36:14;9.10;99.90
29817;DHT22;16805;52.956;5.906;2023-10-19T04:38:40;9.10;99.90
29817;DHT22;16805;52.956;5.906;2023-10-19T04:41:10;9.10;99.90
29817;DHT22;16805;52.956;5.906;2023-10-19T04:43:37;9.10;99.90
29817;DHT22;16805;52.956;5.906;2023-10-19T04:46:07;9.10;99.90
29817;DHT22;16805;52.956;5.906;2023-10-19T04:48:37;9.10;99.90
29817;DHT22;16805;52.956;5.906;2023-10-19T04:51:05;9.10;99.90
29817;DHT22;16805;52.956;5.906;2023-10-19T04:53:31;9.20;99.90
29817;DHT22;16805;52.956;5.906;2023-10-19T04:55:57;9.20;99.90
29817;DHT22;16805;52.956;5.906;2023-10-19T04:58:26;9.20;99.90
29817;DHT22;16805;52.956;5.906;2023-10-19T05:00:53;9.20;99.90
29817;DHT22;16805;52.956;5.906;2023-10-19T05:03:18;9.20;99.90
29817;DHT22;16805;52.956;5.906;2023-10-19T05:05:44;9.30;99.90
29817;DHT22;16805;52.956;5.906;2023-10-19T05:08:11;9.30;99.90
29817;DHT22;16805;52.956;5.906;2023-10-19T05:10:36;9.30;99.90
29817;DHT22;16805;52.956;5.906;2023-10-19T05:13:03;9.30;99.90
29817;DHT22;16805;52.956;5.906;2023-10-19T05:15:29;9.40;99.90
29817;DHT22;16805;52.956;5.906;2023-10-19T05:17:54;9.40;99.90
29817;DHT22;16805;52.956;5.906;2023-10-19T05:20:20;9.40;99.90
29817;DHT22;16805;52.956;5.906;2023-10-19T05:22:46;9.40;99.90
29817;DHT22;16805;52.956;5.906;2023-10-19T05:25:12;9.40;99.90
29817;DHT22;16805;52.956;5.906;2023-10-19T05:27:38;9.50;99.90
29817;DHT22;16805;52.956;5.906;2023-10-19T05:30:05;9.40;99.90
29817;DHT22;16805;52.956;5.906;2023-10-19T05:32:31;9.50;99.90
29817;DHT22;16805;52.956;5.906;2023-10-19T05:34:57;9.50;99.90
29817;DHT22;16805;52.956;5.906;2023-10-19T05:37:23;9.50;99.90
29817;DHT22;16805;52.956;5.906;2023-10-19T05:39:48;9.50;99.90
29817;DHT22;16805;52.956;5.906;2023-10-19T05:42:17;9.50;99.90
29817;DHT22;16805;52.956;5.906;2023-10-19T05:44:43;9.50;99.90
29817;DHT22;16805;52.956;5.906;2023-10-19T05:47:08;9.50;99.90
29817;DHT22;16805;52.956;5.906;2023-10-19T05:49:34;9.60;99.90
29817;DHT22;16805;52.956;5.906;2023-10-19T05:52:00;9.60;99.90
29817;DHT22;16805;52.956;5.906;2023-10-19T05:54:26;9.50;99.90
29817;DHT22;16805;52.956;5.906;2023-10-19T05:56:52;9.60;99.90
29817;DHT22;16805;52.956;5.906;2023-10-19T05:59:18;9.60;99.90
29817;DHT22;16805;52.956;5.906;2023-10-19T06:01:43;9.60;99.90
29817;DHT22;16805;52.956;5.906;2023-10-19T06:04:13;9.60;99.90
29817;DHT22;16805;52.956;5.906;2023-10-19T06:06:39;9.60;99.90
29817;DHT22;16805;52.956;5.906;2023-10-19T06:09:07;9.60;99.90
29817;DHT22;16805;52.956;5.906;2023-10-19T06:11:36;9.60;99.90
29817;DHT22;16805;52.956;5.906;2023-10-19T06:14:08;9.60;99.90
29817;DHT22;16805;52.956;5.906;2023-10-19T06:16:35;9.60;99.90
29817;DHT22;16805;52.956;5.906;2023-10-19T06:19:01;9.60;99.90
29817;DHT22;16805;52.956;5.906;2023-10-19T06:21:26;9.60;99.90
29817;DHT22;16805;52.956;5.906;2023-10-19T06:23:52;9.60;99.90
29817;DHT22;16805;52.956;5.906;2023-10-19T06:26:19;9.60;99.90
29817;DHT22;16805;52.956;5.906;2023-10-19T06:28:44;9.70;99.90
29817;DHT22;16805;52.956;5.906;2023-10-19T06:31:10;9.70;99.90
29817;DHT22;16805;52.956;5.906;2023-10-19T06:33:36;9.70;99.90
29817;DHT22;16805;52.956;5.906;2023-10-19T06:36:02;9.70;99.90
29817;DHT22;16805;52.956;5.906;2023-10-19T06:38:29;9.70;99.90
29817;DHT22;16805;52.956;5.906;2023-10-19T06:40:55;9.70;99.90
29817;DHT22;16805;52.956;5.906;2023-10-19T06:43:21;9.70;99.90
29817;DHT22;16805;52.956;5.906;2023-10-19T06:45:50;9.70;99.90
29817;DHT22;16805;52.956;5.906;2023-10-19T06:48:16;9.70;99.90
29817;DHT22;16805;52.956;5.906;2023-10-19T06:50:42;9.80;99.90
29817;DHT22;16805;52.956;5.906;2023-10-19T06:53:07;9.80;99.90
29817;DHT22;16805;52.956;5.906;2023-10-19T06:55:33;9.80;99.90
29817;DHT22;16805;52.956;5.906;2023-10-19T06:57:59;9.80;99.90
29817;DHT22;16805;52.956;5.906;2023-10-19T07:00:25;9.80;99.90
29817;DHT22;16805;52.956;5.906;2023-10-19T07:02:56;9.90;99.90
29817;DHT22;16805;52.956;5.906;2023-10-19T07:05:23;9.90;99.90
29817;DHT22;16805;52.956;5.906;2023-10-19T07:07:55;9.90;99.90
29817;DHT22;16805;52.956;5.906;2023-10-19T07:10:22;9.90;99.90
29817;DHT22;16805;52.956;5.906;2023-10-19T07:12:51;9.90;99.90
29817;DHT22;16805;52.956;5.906;2023-10-19T07:15:18;10.00;99.90
29817;DHT22;16805;52.956;5.906;2023-10-19T07:17:45;10.00;99.90
29817;DHT22;16805;52.956;5.906;2023-10-19T07:20:12;10.00;99.90
29817;DHT22;16805;52.956;5.906;2023-10-19T07:23:01;10.00;99.90
29817;DHT22;16805;52.956;5.906;2023-10-19T07:25:44;10.00;99.90
29817;DHT22;16805;52.956;5.906;2023-10-19T07:28:11;10.10;99.90
29817;DHT22;16805;52.956;5.906;2023-10-19T07:30:38;10.10;99.90
29817;DHT22;16805;52.956;5.906;2023-10-19T07:33:04;10.10;99.90
29817;DHT22;16805;52.956;5.906;2023-10-19T07:35:34;10.10;99.90
29817;DHT22;16805;52.956;5.906;2023-10-19T07:38:03;10.10;99.90
29817;DHT22;16805;52.956;5.906;2023-10-19T07:40:30;10.10;99.90
29817;DHT22;16805;52.956;5.906;2023-10-19T07:42:55;10.10;99.90
29817;DHT22;16805;52.956;5.906;2023-10-19T07:45:22;10.20;99.90
29817;DHT22;16805;52.956;5.906;2023-10-19T07:47:47;10.20;99.90
29817;DHT22;16805;52.956;5.906;2023-10-19T07:50:14;10.20;99.90
29817;DHT22;16805;52.956;5.906;2023-10-19T07:52:47;10.20;99.90
29817;DHT22;16805;52.956;5.906;2023-10-19T07:55:18;10.20;99.90
29817;DHT22;16805;52.956;5.906;2023-10-19T07:57:44;10.30;99.90
29817;DHT22;16805;52.956;5.906;2023-10-19T08:00:12;10.30;99.90
29817;DHT22;16805;52.956;5.906;2023-10-19T08:02:41;10.20;99.90
29817;DHT22;16805;52.956;5.906;2023-10-19T08:05:16;10.30;99.90
29817;DHT22;16805;52.956;5.906;2023-10-19T08:07:44;10.30;99.90
29817;DHT22;16805;52.956;5.906;2023-10-19T08:10:11;10.40;99.90
29817;DHT22;16805;52.956;5.906;2023-10-19T08:12:38;10.40;99.90
29817;DHT22;16805;52.956;5.906;2023-10-19T08:15:07;10.40;99.90
29817;DHT22;16805;52.956;5.906;2023-10-19T08:17:40;10.40;99.90
29817;DHT22;16805;52.956;5.906;2023-10-19T08:20:07;10.40;99.90
29817;DHT22;16805;52.956;5.906;2023-10-19T08:22:42;10.40;99.90
29817;DHT22;16805;52.956;5.906;2023-10-19T08:25:08;10.50;99.90
29817;DHT22;16805;52.956;5.906;2023-10-19T08:27:43;10.50;99.90
29817;DHT22;16805;52.956;5.906;2023-10-19T08:30:14;10.50;99.90
29817;DHT22;16805;52.956;5.906;2023-10-19T08:32:41;10.60;99.90
29817;DHT22;16805;52.956;5.906;2023-10-19T08:35:08;10.60;99.90
29817;DHT22;16805;52.956;5.906;2023-10-19T08:37:39;10.60;99.90
29817;DHT22;16805;52.956;5.906;2023-10-19T08:40:06;10.60;99.90
29817;DHT22;16805;52.956;5.906;2023-10-19T08:42:32;10.60;99.90
29817;DHT22;16805;52.956;5.906;2023-10-19T08:45:00;10.70;99.90
29817;DHT22;16805;52.956;5.906;2023-10-19T08:47:26;10.70;99.90
29817;DHT22;16805;52.956;5.906;2023-10-19T08:49:53;10.70;99.90
29817;DHT22;16805;52.956;5.906;2023-10-19T08:52:21;10.70;99.90
29817;DHT22;16805;52.956;5.906;2023-10-19T08:54:48;10.80;99.90
29817;DHT22;16805;52.956;5.906;2023-10-19T08:57:14;10.80;99.90
29817;DHT22;16805;52.956;5.906;2023-10-19T08:59:39;10.80;99.90
29817;DHT22;16805;52.956;5.906;2023-10-19T09:02:05;10.90;99.90
29817;DHT22;16805;52.956;5.906;2023-10-19T09:04:32;10.90;99.90
29817;DHT22;16805;52.956;5.906;2023-10-19T09:06:58;10.90;99.90
29817;DHT22;16805;52.956;5.906;2023-10-19T09:09:28;10.90;99.90
29817;DHT22;16805;52.956;5.906;2023-10-19T09:11:57;11.00;99.90
29817;DHT22;16805;52.956;5.906;2023-10-19T09:14:34;11.00;99.90
29817;DHT22;16805;52.956;5.906;2023-10-19T09:17:02;11.00;99.90
29817;DHT22;16805;52.956;5.906;2023-10-19T09:19:40;11.00;99.90
29817;DHT22;16805;52.956;5.906;2023-10-19T09:22:07;11.00;99.90
29817;DHT22;16805;52.956;5.906;2023-10-19T09:24:37;11.10;99.90
29817;DHT22;16805;52.956;5.906;2023-10-19T09:27:03;11.10;99.90
29817;DHT22;16805;52.956;5.906;2023-10-19T09:29:30;11.10;99.90
29817;DHT22;16805;52.956;5.906;2023-10-19T09:31:58;11.20;99.90
29817;DHT22;16805;52.956;5.906;2023-10-19T09:34:28;11.20;99.90
29817;DHT22;16805;52.956;5.906;2023-10-19T09:37:00;11.20;99.90
29817;DHT22;16805;52.956;5.906;2023-10-19T09:39:32;11.20;99.90
29817;DHT22;16805;52.956;5.906;2023-10-19T09:42:09;11.20;99.90
29817;DHT22;16805;52.956;5.906;2023-10-19T09:44:47;11.30;99.90
29817;DHT22;16805;52.956;5.906;2023-10-19T09:47:38;11.30;99.90
29817;DHT22;16805;52.956;5.906;2023-10-19T09:50:06;11.30;99.90
29817;DHT22;16805;52.956;5.906;2023-10-19T09:52:33;11.30;99.90
29817;DHT22;16805;52.956;5.906;2023-10-19T09:55:00;11.40;99.90
29817;DHT22;16805;52.956;5.906;2023-10-19T09:57:36;11.30;99.90
29817;DHT22;16805;52.956;5.906;2023-10-19T10:00:04;11.40;99.90
29817;DHT22;16805;52.956;5.906;2023-10-19T10:02:53;11.50;99.90
29817;DHT22;16805;52.956;5.906;2023-10-19T10:10:43;11.60;99.90
29817;DHT22;16805;52.956;5.906;2023-10-19T10:15:54;11.70;99.90
29817;DHT22;16805;52.956;5.906;2023-10-19T10:18:20;11.70;99.90
29817;DHT22;16805;52.956;5.906;2023-10-19T10:20:46;11.80;99.90
29817;DHT22;16805;52.956;5.906;2023-10-19T10:23:20;11.90;99.90
29817;DHT22;16805;52.956;5.906;2023-10-19T10:25:50;11.90;99.90
29817;DHT22;16805;52.956;5.906;2023-10-19T10:28:19;11.90;99.90
29817;DHT22;16805;52.956;5.906;2023-10-19T10:33:49;12.00;99.90
29817;DHT22;16805;52.956;5.906;2023-10-19T10:36:18;12.00;99.90
29817;DHT22;16805;52.956;5.906;2023-10-19T10:38:45;12.00;99.90
29817;DHT22;16805;52.956;5.906;2023-10-19T10:41:11;12.00;99.90
29817;DHT22;16805;52.956;5.906;2023-10-19T10:43:53;12.00;99.90
29817;DHT22;16805;52.956;5.906;2023-10-19T10:46:23;12.00;99.90
29817;DHT22;16805;52.956;5.906;2023-10-19T10:48:49;12.10;99.90
29817;DHT22;16805;52.956;5.906;2023-10-19T10:51:19;12.10;99.90
29817;DHT22;16805;52.956;5.906;2023-10-19T10:53:52;12.10;99.90
29817;DHT22;16805;52.956;5.906;2023-10-19T10:56:22;12.20;99.90
29817;DHT22;16805;52.956;5.906;2023-10-19T10:58:48;12.20;99.90
29817;DHT22;16805;52.956;5.906;2023-10-19T11:01:14;12.30;99.90
29817;DHT22;16805;52.956;5.906;2023-10-19T11:03:43;12.20;99.90
29817;DHT22;16805;52.956;5.906;2023-10-19T11:06:11;12.30;99.90
29817;DHT22;16805;52.956;5.906;2023-10-19T11:08:37;12.30;99.90
29817;DHT22;16805;52.956;5.906;2023-10-19T11:11:06;12.30;99.90
29817;DHT22;16805;52.956;5.906;2023-10-19T11:13:32;12.40;99.90
29817;DHT22;16805;52.956;5.906;2023-10-19T11:16:02;12.40;99.90
29817;DHT22;16805;52.956;5.906;2023-10-19T11:18:32;12.40;99.90
29817;DHT22;16805;52.956;5.906;2023-10-19T11:21:17;12.40;99.90
29817;DHT22;16805;52.956;5.906;2023-10-19T11:23:47;12.50;99.90
29817;DHT22;16805;52.956;5.906;2023-10-19T11:26:18;12.60;99.90
29817;DHT22;16805;52.956;5.906;2023-10-19T11:28:44;12.70;99.90
29817;DHT22;16805;52.956;5.906;2023-10-19T11:31:20;12.70;99.90
29817;DHT22;16805;52.956;5.906;2023-10-19T11:33:48;12.70;99.90
29817;DHT22;16805;52.956;5.906;2023-10-19T11:36:15;12.80;99.90
29817;DHT22;16805;52.956;5.906;2023-10-19T11:38:45;12.80;99.90
29817;DHT22;16805;52.956;5.906;2023-10-19T11:41:12;12.80;99.90
29817;DHT22;16805;52.956;5.906;2023-10-19T11:43:46;12.90;99.90
29817;DHT22;16805;52.956;5.906;2023-10-19T11:46:12;13.00;99.90
29817;DHT22;16805;52.956;5.906;2023-10-19T11:48:38;13.00;99.90
29817;DHT22;16805;52.956;5.906;2023-10-19T11:51:06;13.10;99.90
29817;DHT22;16805;52.956;5.906;2023-10-19T11:53:33;13.10;99.90
29817;DHT22;16805;52.956;5.906;2023-10-19T11:56:07;13.20;99.90
29817;DHT22;16805;52.956;5.906;2023-10-19T11:58:34;13.30;99.90
29817;DHT22;16805;52.956;5.906;2023-10-19T12:01:01;13.20;99.90
29817;DHT22;16805;52.956;5.906;2023-10-19T12:03:31;13.20;99.90
29817;DHT22;16805;52.956;5.906;2023-10-19T12:05:56;13.20;99.90
29817;DHT22;16805;52.956;5.906;2023-10-19T12:08:22;13.20;99.90
29817;DHT22;16805;52.956;5.906;2023-10-19T12:10:50;13.20;99.90
29817;DHT22;16805;52.956;5.906;2023-10-19T12:13:16;13.10;99.90
29817;DHT22;16805;52.956;5.906;2023-10-19T12:15:42;13.10;99.90
29817;DHT22;16805;52.956;5.906;2023-10-19T12:18:19;13.20;99.90
29817;DHT22;16805;52.956;5.906;2023-10-19T12:20:45;13.20;99.90
29817;DHT22;16805;52.956;5.906;2023-10-19T12:23:12;13.20;99.90
29817;DHT22;16805;52.956;5.906;2023-10-19T12:25:37;13.10;99.90
29817;DHT22;16805;52.956;5.906;2023-10-19T12:28:04;13.20;99.90
29817;DHT22;16805;52.956;5.906;2023-10-19T12:30:30;13.10;99.90
29817;DHT22;16805;52.956;5.906;2023-10-19T12:33:03;13.10;99.90
29817;DHT22;16805;52.956;5.906;2023-10-19T12:35:33;13.10;99.90
29817;DHT22;16805;52.956;5.906;2023-10-19T12:38:13;13.10;99.90
29817;DHT22;16805;52.956;5.906;2023-10-19T12:40:46;13.20;99.90
29817;DHT22;16805;52.956;5.906;2023-10-19T12:43:13;13.20;99.90
29817;DHT22;16805;52.956;5.906;2023-10-19T12:45:39;13.20;99.90
29817;DHT22;16805;52.956;5.906;2023-10-19T12:48:05;13.20;99.90
29817;DHT22;16805;52.956;5.906;2023-10-19T12:50:33;13.10;99.90
29817;DHT22;16805;52.956;5.906;2023-10-19T12:52:59;13.10;99.90
29817;DHT22;16805;52.956;5.906;2023-10-19T12:55:26;13.10;99.90
29817;DHT22;16805;52.956;5.906;2023-10-19T12:57:59;13.10;99.90
29817;DHT22;16805;52.956;5.906;2023-10-19T13:00:32;13.10;99.90
29817;DHT22;16805;52.956;5.906;2023-10-19T13:03:10;13.00;99.90
29817;DHT22;16805;52.956;5.906;2023-10-19T13:05:40;13.00;99.90
29817;DHT22;16805;52.956;5.906;2023-10-19T13:08:13;13.00;99.90
29817;DHT22;16805;52.956;5.906;2023-10-19T13:10:40;13.00;99.90
29817;DHT22;16805;52.956;5.906;2023-10-19T13:13:08;13.00;99.90
29817;DHT22;16805;52.956;5.906;2023-10-19T13:15:38;13.00;99.90
29817;DHT22;16805;52.956;5.906;2023-10-19T13:18:06;12.90;99.90
29817;DHT22;16805;52.956;5.906;2023-10-19T13:20:33;13.00;99.90
29817;DHT22;16805;52.956;5.906;2023-10-19T13:23:05;13.00;99.90
29817;DHT22;16805;52.956;5.906;2023-10-19T13:25:33;12.90;99.90
29817;DHT22;16805;52.956;5.906;2023-10-19T13:28:10;12.90;99.90
29817;DHT22;16805;52.956;5.906;2023-10-19T13:30:56;12.90;99.90
29817;DHT22;16805;52.956;5.906;2023-10-19T13:33:23;12.90;99.90
29817;DHT22;16805;52.956;5.906;2023-10-19T13:35:50;12.90;99.90
29817;DHT22;16805;52.956;5.906;2023-10-19T13:38:17;12.90;99.90
29817;DHT22;16805;52.956;5.906;2023-10-19T13:40:45;12.90;99.90
29817;DHT22;16805;52.956;5.906;2023-10-19T13:43:12;12.90;99.90
29817;DHT22;16805;52.956;5.906;2023-10-19T13:45:44;12.80;99.90
29817;DHT22;16805;52.956;5.906;2023-10-19T13:48:11;12.80;99.90
29817;DHT22;16805;52.956;5.906;2023-10-19T13:50:42;12.80;99.90
29817;DHT22;16805;52.956;5.906;2023-10-19T13:53:13;12.80;99.90
29817;DHT22;16805;52.956;5.906;2023-10-19T13:55:39;12.80;99.90
29817;DHT22;16805;52.956;5.906;2023-10-19T13:58:05;12.70;99.90
29817;DHT22;16805;52.956;5.906;2023-10-19T14:00:32;12.70;99.90
29817;DHT22;16805;52.956;5.906;2023-10-19T14:03:06;12.70;99.90
29817;DHT22;16805;52.956;5.906;2023-10-19T14:05:40;12.60;99.90
29817;DHT22;16805;52.956;5.906;2023-10-19T14:08:08;12.60;99.90
29817;DHT22;16805;52.956;5.906;2023-10-19T14:10:35;12.60;99.90
29817;DHT22;16805;52.956;5.906;2023-10-19T14:13:00;12.50;99.90
29817;DHT22;16805;52.956;5.906;2023-10-19T14:15:26;12.50;99.90
29817;DHT22;16805;52.956;5.906;2023-10-19T14:17:56;12.50;99.90
29817;DHT22;16805;52.956;5.906;2023-10-19T14:20:24;12.50;99.90
29817;DHT22;16805;52.956;5.906;2023-10-19T14:22:50;12.40;99.90
29817;DHT22;16805;52.956;5.906;2023-10-19T14:25:16;12.40;99.90
29817;DHT22;16805;52.956;5.906;2023-10-19T14:27:48;12.40;99.90
29817;DHT22;16805;52.956;5.906;2023-10-19T14:30:16;12.40;99.90
29817;DHT22;16805;52.956;5.906;2023-10-19T14:32:46;12.30;99.90
29817;DHT22;16805;52.956;5.906;2023-10-19T14:35:16;12.30;99.90
29817;DHT22;16805;52.956;5.906;2023-10-19T14:37:46;12.30;99.90
29817;DHT22;16805;52.956;5.906;2023-10-19T14:40:24;12.20;99.90
29817;DHT22;16805;52.956;5.906;2023-10-19T14:42:52;12.20;99.90
29817;DHT22;16805;52.956;5.906;2023-10-19T14:45:21;12.20;99.90
29817;DHT22;16805;52.956;5.906;2023-10-19T14:47:52;12.20;99.90
29817;DHT22;16805;52.956;5.906;2023-10-19T14:50:18;12.10;99.90
29817;DHT22;16805;52.956;5.906;2023-10-19T14:52:46;12.10;99.90
29817;DHT22;16805;52.956;5.906;2023-10-19T14:55:12;12.10;99.90
29817;DHT22;16805;52.956;5.906;2023-10-19T14:57:44;12.10;99.90
29817;DHT22;16805;52.956;5.906;2023-10-19T15:00:19;12.00;99.90
29817;DHT22;16805;52.956;5.906;2023-10-19T15:02:52;12.00;99.90
29817;DHT22;16805;52.956;5.906;2023-10-19T15:05:20;12.00;99.90
29817;DHT22;16805;52.956;5.906;2023-10-19T15:07:51;12.00;99.90
29817;DHT22;16805;52.956;5.906;2023-10-19T15:10:27;12.00;99.90
29817;DHT22;16805;52.956;5.906;2023-10-19T15:12:54;12.00;99.90
29817;DHT22;16805;52.956;5.906;2023-10-19T15:15:22;12.00;99.90
29817;DHT22;16805;52.956;5.906;2023-10-19T15:17:48;12.00;99.90
29817;DHT22;16805;52.956;5.906;2023-10-19T15:20:16;12.00;99.90
29817;DHT22;16805;52.956;5.906;2023-10-19T15:22:42;11.90;99.90
29817;DHT22;16805;52.956;5.906;2023-10-19T15:25:09;11.90;99.90
29817;DHT22;16805;52.956;5.906;2023-10-19T15:27:43;11.90;99.90
29817;DHT22;16805;52.956;5.906;2023-10-19T15:30:10;11.90;99.90
29817;DHT22;16805;52.956;5.906;2023-10-19T15:32:37;11.90;99.90
29817;DHT22;16805;52.956;5.906;2023-10-19T15:35:03;11.90;99.90
29817;DHT22;16805;52.956;5.906;2023-10-19T15:37:29;11.90;99.90
29817;DHT22;16805;52.956;5.906;2023-10-19T15:39:55;11.80;99.90
29817;DHT22;16805;52.956;5.906;2023-10-19T15:42:21;11.80;99.90
29817;DHT22;16805;52.956;5.906;2023-10-19T15:44:50;11.80;99.90
29817;DHT22;16805;52.956;5.906;2023-10-19T15:47:16;11.80;99.90
29817;DHT22;16805;52.956;5.906;2023-10-19T15:49:54;11.80;99.90
29817;DHT22;16805;52.956;5.906;2023-10-19T15:52:25;11.80;99.90
29817;DHT22;16805;52.956;5.906;2023-10-19T15:54:51;11.70;99.90
29817;DHT22;16805;52.956;5.906;2023-10-19T15:57:18;11.70;99.90
29817;DHT22;16805;52.956;5.906;2023-10-19T15:59:44;11.70;99.90